Time;durP1;ratioP1;P1;durP2;ratioP2;P2;SDS_P1;SDS_P2;PMS_P1;PMS_P2;Temp;Humidity;BMP_temperature;BMP_pressure;BME280_temperature;BME280_humidity;BME280_pressure;Samples;Min_cycle;Max_cycle;Signal;HPM_P1;HPM_P2
2022/04/28 00:00:53;;;;;;;;;;;;;;;7.68;63.84;102904.22;5095799;28;19928;-33
2022/04/28 00:03:19;;;;;;;;;;;;;;;7.64;64.72;102902.84;5096061;28;19912;-33
2022/04/28 00:05:44;;;;;;;;;;;;;;;7.56;67.00;102903.66;5096269;28;20011;-33
2022/04/28 00:08:09;;;;;;;;;;;;;;;7.54;65.08;102911.06;5095706;28;19916;-33
2022/04/28 00:10:36;;;;;;;;;;;;;;;7.54;63.98;102912.91;5096472;28;19918;-33
2022/04/28 00:13:02;;;;;;;;;;;;;;;7.50;64.26;102915.06;5096279;28;19912;-33
2022/04/28 00:15:28;;;;;;;;;;;;;;;7.47;64.09;102921.63;5095921;28;19992;-33
2022/04/28 00:17:53;;;;;;;;;;;;;;;7.38;65.82;102927.97;5096019;28;19916;-33
2022/04/28 00:20:19;;;;;;;;;;;;;;;7.35;65.09;102922.88;5096398;28;19964;-33
2022/04/28 00:22:44;;;;;;;;;;;;;;;7.36;64.53;102929.94;5095786;28;19912;-33
2022/04/28 00:25:09;;;;;;;;;;;;;;;7.34;64.71;102931.13;5096547;28;19912;-33
2022/04/28 00:27:35;;;;;;;;;;;;;;;7.35;65.16;102920.19;5095619;28;19916;-33
2022/04/28 00:30:00;;;;;;;;;;;;;;;7.35;64.73;102927.44;5096255;28;19938;-33
2022/04/28 00:32:26;;;;;;;;;;;;;;;7.36;64.87;102926.41;5095265;28;19912;-33
2022/04/28 00:34:51;;;;;;;;;;;;;;;7.36;64.74;102915.66;5095555;28;19973;-33
2022/04/28 00:37:18;;;;;;;;;;;;;;;7.33;64.43;102916.84;5095167;28;19912;-33
2022/04/28 00:39:43;;;;;;;;;;;;;;;7.32;64.78;102916.97;5095169;28;19919;-34
2022/04/28 00:42:10;;;;;;;;;;;;;;;7.23;66.96;102916.94;5096192;28;19912;-33
2022/04/28 00:44:35;;;;;;;;;;;;;;;7.18;66.66;102915.72;5095310;28;19912;-34
2022/04/28 00:47:00;;;;;;;;;;;;;;;7.17;68.04;102919.41;5095310;28;19919;-34
2022/04/28 00:52:09;;;;;;;;;;;;;;;7.11;68.90;102915.50;5095475;28;20348;-34
2022/04/28 00:54:35;;;;;;;;;;;;;;;7.06;67.34;102915.13;5094918;28;19942;-33
2022/04/28 00:57:00;;;;;;;;;;;;;;;7.04;68.43;102913.63;5094888;28;19912;-33
2022/04/28 00:59:27;;;;;;;;;;;;;;;7.00;67.34;102917.63;5095046;28;19912;-34
2022/04/28 01:01:53;;;;;;;;;;;;;;;6.97;67.41;102919.59;5095388;28;19919;-34
2022/04/28 01:04:18;;;;;;;;;;;;;;;6.85;70.63;102920.88;5094601;28;20292;-33
2022/04/28 01:06:44;;;;;;;;;;;;;;;6.83;68.04;102906.75;5094993;28;19919;-33
2022/04/28 01:09:09;;;;;;;;;;;;;;;6.75;71.26;102912.03;5094685;28;19912;-34
2022/04/28 01:11:35;;;;;;;;;;;;;;;6.76;68.63;102918.25;5095442;28;19912;-34
2022/04/28 01:14:00;;;;;;;;;;;;;;;6.69;70.24;102915.34;5095587;28;19912;-33
2022/04/28 01:16:25;;;;;;;;;;;;;;;6.72;68.07;102917.72;5095117;28;20248;-33
2022/04/28 01:18:50;;;;;;;;;;;;;;;6.69;69.52;102920.72;5094691;28;20334;-34
2022/04/28 01:21:16;;;;;;;;;;;;;;;6.60;69.92;102917.13;5094720;28;20411;-34
2022/04/28 01:23:41;;;;;;;;;;;;;;;6.51;71.44;102906.44;5094611;28;20015;-34
2022/04/28 01:26:06;;;;;;;;;;;;;;;6.56;70.84;102920.28;5095043;28;19965;-33
2022/04/28 01:28:32;;;;;;;;;;;;;;;6.47;71.52;102919.34;5094910;28;19916;-34
2022/04/28 01:31:00;;;;;;;;;;;;;;;6.42;72.63;102924.34;5095215;28;19973;-34
2022/04/28 01:33:26;;;;;;;;;;;;;;;6.41;70.72;102917.28;5094782;28;19912;-33
2022/04/28 01:35:51;;;;;;;;;;;;;;;6.39;72.89;102920.13;5094785;28;19912;-34
2022/04/28 01:38:16;;;;;;;;;;;;;;;6.31;73.78;102922.72;5094371;28;20356;-33
2022/04/28 01:40:43;;;;;;;;;;;;;;;6.31;72.30;102921.88;5094628;28;19912;-33
2022/04/28 01:43:08;;;;;;;;;;;;;;;6.28;74.83;102931.06;5094183;28;19919;-33
2022/04/28 01:45:33;;;;;;;;;;;;;;;6.28;74.22;102935.59;5094278;28;20294;-33
2022/04/28 01:47:58;;;;;;;;;;;;;;;6.29;72.42;102924.69;5094106;28;20363;-33
2022/04/28 01:50:23;;;;;;;;;;;;;;;6.26;73.88;102927.69;5094131;28;20003;-33
2022/04/28 01:55:33;;;;;;;;;;;;;;;6.20;75.11;102920.25;5094663;28;20300;-33
2022/04/28 01:57:58;;;;;;;;;;;;;;;6.17;75.71;102915.19;5094001;28;19912;-33
2022/04/28 02:00:23;;;;;;;;;;;;;;;6.14;74.30;102920.84;5094329;28;19920;-33
2022/04/28 02:02:49;;;;;;;;;;;;;;;6.17;74.32;102921.38;5094620;28;19911;-33
2022/04/28 02:05:14;;;;;;;;;;;;;;;6.13;74.33;102921.84;5093990;28;19919;-33
2022/04/28 02:07:39;;;;;;;;;;;;;;;6.11;74.25;102927.38;5093837;28;19919;-33
2022/04/28 02:10:05;;;;;;;;;;;;;;;6.08;75.52;102921.44;5094091;28;20291;-33
2022/04/28 02:12:31;;;;;;;;;;;;;;;5.98;77.12;102926.03;5094065;28;19977;-34
2022/04/28 02:14:56;;;;;;;;;;;;;;;5.96;75.56;102928.03;5093884;28;19918;-33
2022/04/28 02:17:25;;;;;;;;;;;;;;;5.99;75.18;102933.94;5094252;28;19960;-33
2022/04/28 02:19:51;;;;;;;;;;;;;;;5.98;73.64;102921.50;5093245;28;19977;-33
2022/04/28 02:22:16;;;;;;;;;;;;;;;6.04;73.97;102920.06;5094002;28;19912;-33
2022/04/28 02:24:42;;;;;;;;;;;;;;;6.03;75.37;102926.44;5093363;28;19978;-33
2022/04/28 02:27:07;;;;;;;;;;;;;;;6.04;73.87;102930.81;5094030;28;20360;-33
2022/04/28 02:29:33;;;;;;;;;;;;;;;6.04;74.44;102933.47;5091929;28;19923;-34
2022/04/28 02:31:58;;;;;;;;;;;;;;;6.05;73.19;102927.09;5093853;28;20002;-33
2022/04/28 02:34:24;;;;;;;;;;;;;;;6.02;75.20;102930.13;5093204;28;20346;-34
2022/04/28 02:36:49;;;;;;;;;;;;;;;5.93;75.37;102935.38;5093865;28;19923;-34
2022/04/28 02:39:15;;;;;;;;;;;;;;;5.93;74.41;102930.00;5093542;28;19912;-33
2022/04/28 02:41:40;;;;;;;;;;;;;;;5.85;76.68;102929.88;5094279;28;19912;-33
2022/04/28 02:44:06;;;;;;;;;;;;;;;5.77;76.15;102927.09;5093473;28;20010;-33
2022/04/28 02:46:31;;;;;;;;;;;;;;;5.71;77.43;102925.03;5093878;28;19919;-34
2022/04/28 02:48:57;;;;;;;;;;;;;;;5.63;78.03;102927.59;5093745;28;19919;-33
2022/04/28 02:51:22;;;;;;;;;;;;;;;5.55;79.08;102919.41;5093466;28;19953;-33
2022/04/28 02:53:48;;;;;;;;;;;;;;;5.45;79.95;102918.59;5093641;28;19966;-33
2022/04/28 02:56:13;;;;;;;;;;;;;;;5.45;79.42;102923.97;5093860;28;20352;-33
2022/04/28 02:58:38;;;;;;;;;;;;;;;5.36;80.76;102917.63;5093492;28;20348;-33
2022/04/28 03:01:03;;;;;;;;;;;;;;;5.36;80.10;102931.06;5093511;28;20034;-33
2022/04/28 03:03:29;;;;;;;;;;;;;;;5.32;80.73;102929.66;5093330;28;20324;-33
2022/04/28 03:11:23;;;;;;;;;;;;;;;5.26;80.72;102924.88;5092991;28;19919;-33
2022/04/28 03:13:48;;;;;;;;;;;;;;;5.27;80.46;102931.94;5092805;28;20007;-33
2022/04/28 03:16:14;;;;;;;;;;;;;;;5.31;79.34;102926.13;5093727;28;19970;-33
2022/04/28 03:18:39;;;;;;;;;;;;;;;5.38;79.27;102931.78;5093346;28;19916;-33
2022/04/28 03:21:08;;;;;;;;;;;;;;;5.43;78.95;102916.91;5093092;28;20007;-33
2022/04/28 03:23:33;;;;;;;;;;;;;;;5.46;79.08;102922.97;5092772;28;20371;-43
2022/04/28 03:25:58;;;;;;;;;;;;;;;5.48;79.50;102921.84;5093411;28;20003;-33
2022/04/28 03:28:23;;;;;;;;;;;;;;;5.49;79.44;102925.38;5091614;28;20007;-34
2022/04/28 03:30:49;;;;;;;;;;;;;;;5.52;78.66;102925.09;5092967;28;19985;-33
2022/04/28 03:33:15;;;;;;;;;;;;;;;5.51;79.00;102931.44;5096186;28;19965;-34
2022/04/28 03:35:40;;;;;;;;;;;;;;;5.46;80.31;102922.97;5097414;28;20304;-33
2022/04/28 03:38:07;;;;;;;;;;;;;;;5.28;81.29;102928.28;5096800;28;19912;-33
2022/04/28 03:40:32;;;;;;;;;;;;;;;5.32;80.52;102924.28;5097208;28;19912;-33
2022/04/28 03:42:58;;;;;;;;;;;;;;;5.32;79.65;102929.66;5097188;28;19912;-34
2022/04/28 03:45:25;;;;;;;;;;;;;;;5.32;79.56;102930.53;5097133;28;20261;-34
2022/04/28 03:47:50;;;;;;;;;;;;;;;5.35;78.70;102924.84;5097502;28;19912;-33
2022/04/28 03:50:15;;;;;;;;;;;;;;;5.35;79.43;102927.53;5097037;28;19934;-33
2022/04/28 03:52:41;;;;;;;;;;;;;;;5.29;80.65;102925.44;5096455;28;20355;-33
2022/04/28 03:55:06;;;;;;;;;;;;;;;5.29;80.19;102927.28;5096756;28;19999;-33
2022/04/28 03:57:31;;;;;;;;;;;;;;;5.29;79.31;102930.81;5096400;28;19956;-33
2022/04/28 03:59:57;;;;;;;;;;;;;;;5.32;79.01;102924.28;5096354;28;19911;-33
2022/04/28 04:02:22;;;;;;;;;;;;;;;5.28;80.54;102933.63;5096859;28;19912;-33
2022/04/28 04:04:47;;;;;;;;;;;;;;;5.22;81.08;102937.75;5096881;28;19961;-34
2022/04/28 04:07:12;;;;;;;;;;;;;;;5.18;80.32;102930.13;5096660;28;19919;-33
2022/04/28 04:09:38;;;;;;;;;;;;;;;5.18;80.29;102938.19;5095916;28;20336;-33
2022/04/28 04:12:05;;;;;;;;;;;;;;;5.09;81.43;102929.16;5096604;28;20003;-33
2022/04/28 04:14:31;;;;;;;;;;;;;;;5.08;81.77;102943.56;5096527;28;20249;-33
2022/04/28 04:16:56;;;;;;;;;;;;;;;5.06;80.80;102940.16;5096258;28;20010;-33
2022/04/28 04:19:21;;;;;;;;;;;;;;;5.08;81.59;102943.56;5095914;28;19959;-33
2022/04/28 04:21:47;;;;;;;;;;;;;;;5.09;81.29;102942.56;5095630;28;19934;-33
2022/04/28 04:24:12;;;;;;;;;;;;;;;5.11;81.35;102940.56;5096051;28;19919;-33
2022/04/28 04:26:37;;;;;;;;;;;;;;;5.18;79.44;102946.22;5095505;28;20010;-33
2022/04/28 04:29:02;;;;;;;;;;;;;;;5.24;79.28;102938.44;5096376;28;19924;-33
2022/04/28 04:34:11;;;;;;;;;;;;;;;5.36;77.50;102948.00;5095963;28;20379;-33
2022/04/28 04:36:37;;;;;;;;;;;;;;;5.36;80.17;102947.16;5094569;28;19912;-33
2022/04/28 04:39:02;;;;;;;;;;;;;;;5.35;79.14;102946.31;5096105;28;19912;-34
2022/04/28 04:41:27;;;;;;;;;;;;;;;5.36;78.53;102948.00;5095583;28;19912;-33
2022/04/28 04:43:52;;;;;;;;;;;;;;;5.39;78.42;102950.41;5094988;28;20014;-33
2022/04/28 04:46:18;;;;;;;;;;;;;;;5.37;77.94;102954.22;5095909;28;19938;-33
2022/04/28 04:48:43;;;;;;;;;;;;;;;5.37;78.37;102955.06;5095612;28;19955;-33
2022/04/28 04:51:08;;;;;;;;;;;;;;;5.42;78.88;102963.53;5095166;28;19912;-33
2022/04/28 04:53:33;;;;;;;;;;;;;;;5.43;79.48;102967.91;5095341;28;20263;-33
2022/04/28 04:55:58;;;;;;;;;;;;;;;5.47;77.59;102964.94;5095073;28;19934;-33
2022/04/28 04:58:24;;;;;;;;;;;;;;;5.52;77.65;102970.72;5095283;28;19943;-34
2022/04/28 05:00:49;;;;;;;;;;;;;;;5.60;77.36;102973.50;5095078;28;19912;-33
2022/04/28 05:03:14;;;;;;;;;;;;;;;5.65;77.51;102973.91;5094753;28;20002;-33
2022/04/28 05:05:40;;;;;;;;;;;;;;;5.72;76.69;102969.66;5094379;28;19912;-33
2022/04/28 05:08:06;;;;;;;;;;;;;;;5.81;76.88;102973.31;5094918;28;19988;-33
2022/04/28 05:10:31;;;;;;;;;;;;;;;5.81;79.23;102974.16;5094660;28;20360;-34
2022/04/28 05:12:56;;;;;;;;;;;;;;;5.85;77.36;102980.03;5094593;28;19912;-33
2022/04/28 05:15:22;;;;;;;;;;;;;;;5.83;78.11;102974.84;5094682;28;19912;-33
2022/04/28 05:17:47;;;;;;;;;;;;;;;5.84;77.74;102979.19;5094791;28;19915;-33
2022/04/28 05:20:13;;;;;;;;;;;;;;;5.92;77.48;102983.88;5094795;28;19912;-33
2022/04/28 05:22:38;;;;;;;;;;;;;;;5.99;77.75;102984.13;5094700;28;19916;-33
2022/04/28 05:25:04;;;;;;;;;;;;;;;6.06;77.14;102991.44;5094726;28;20011;-33
2022/04/28 05:27:29;;;;;;;;;;;;;;;6.06;79.46;102995.97;5094466;28;19916;-34
2022/04/28 05:29:54;;;;;;;;;;;;;;;6.08;77.84;102991.28;5094932;28;19922;-33
2022/04/28 05:32:19;;;;;;;;;;;;;;;6.09;77.84;102993.81;5094578;28;19911;-33
2022/04/28 05:34:44;;;;;;;;;;;;;;;6.12;78.28;103006.13;5094562;28;19966;-33
2022/04/28 05:37:11;;;;;;;;;;;;;;;6.16;77.70;102999.47;5094787;28;20010;-33
2022/04/28 05:39:37;;;;;;;;;;;;;;;6.25;78.15;103016.53;5095210;28;19911;-33
2022/04/28 05:42:02;;;;;;;;;;;;;;;6.26;78.59;103007.47;5094405;28;19919;-33
2022/04/28 05:47:12;;;;;;;;;;;;;;;6.31;80.06;103013.22;5094501;28;20379;-33
2022/04/28 05:49:38;;;;;;;;;;;;;;;6.39;79.14;103024.94;5094426;28;19956;-33
2022/04/28 05:52:03;;;;;;;;;;;;;;;6.47;79.11;103021.47;5093882;28;19955;-33
2022/04/28 05:54:29;;;;;;;;;;;;;;;6.61;78.15;103026.34;5093053;28;19934;-33
2022/04/28 05:56:54;;;;;;;;;;;;;;;6.66;78.64;103032.09;5094274;28;19912;-33
2022/04/28 05:59:19;;;;;;;;;;;;;;;6.67;78.91;103025.72;5093778;28;20428;-33
2022/04/28 06:01:44;;;;;;;;;;;;;;;6.76;78.41;103025.81;5094234;28;19912;-33
2022/04/28 06:04:09;;;;;;;;;;;;;;;6.85;78.01;103033.81;5094160;28;19912;-33
2022/04/28 06:06:36;;;;;;;;;;;;;;;6.94;78.96;103038.28;5094136;28;19916;-33
2022/04/28 06:09:01;;;;;;;;;;;;;;;6.99;78.04;103029.75;5094370;28;19912;-34
2022/04/28 06:11:26;;;;;;;;;;;;;;;7.07;77.63;103037.03;5093798;28;19919;-32
2022/04/28 06:13:51;;;;;;;;;;;;;;;7.11;77.51;103033.03;5094048;28;19919;-33
2022/04/28 06:16:17;;;;;;;;;;;;;;;7.22;77.88;103049.81;5093790;28;19912;-33
2022/04/28 06:18:42;;;;;;;;;;;;;;;7.27;77.69;103049.34;5093801;28;20356;-33
2022/04/28 06:21:07;;;;;;;;;;;;;;;7.31;76.97;103055.25;5093780;28;20003;-33
2022/04/28 06:23:32;;;;;;;;;;;;;;;7.30;77.41;103059.78;5094154;28;19923;-33
2022/04/28 06:25:58;;;;;;;;;;;;;;;7.43;77.05;103051.31;5093682;28;19919;-33
2022/04/28 06:28:23;;;;;;;;;;;;;;;7.47;76.90;103058.94;5093793;28;20030;-33
2022/04/28 06:30:48;;;;;;;;;;;;;;;7.57;76.11;103055.28;5093276;28;19919;-33
2022/04/28 06:33:13;;;;;;;;;;;;;;;7.61;76.71;103059.34;5091958;28;20014;-32
2022/04/28 06:35:39;;;;;;;;;;;;;;;7.72;77.14;103056.41;5093261;28;19994;-32
2022/04/28 06:38:04;;;;;;;;;;;;;;;7.85;77.07;103051.41;5093690;28;19912;-33
2022/04/28 06:40:30;;;;;;;;;;;;;;;7.89;75.67;103052.78;5094127;28;19978;-33
2022/04/28 06:42:55;;;;;;;;;;;;;;;7.92;75.48;103054.34;5093104;28;20021;-33
2022/04/28 06:45:21;;;;;;;;;;;;;;;7.96;76.27;103053.88;5093417;28;19912;-32
2022/04/28 06:47:46;;;;;;;;;;;;;;;8.03;76.26;103055.91;5093304;28;19919;-32
2022/04/28 06:50:11;;;;;;;;;;;;;;;8.16;76.01;103054.47;5093690;28;19999;-32
2022/04/28 06:52:39;;;;;;;;;;;;;;;8.25;75.61;103052.66;5093356;28;20077;-32
2022/04/28 06:55:06;;;;;;;;;;;;;;;8.29;74.68;103056.69;5094254;28;19983;-32
2022/04/28 06:57:31;;;;;;;;;;;;;;;8.36;74.16;103056.91;5093930;28;19912;-33
2022/04/28 06:59:56;;;;;;;;;;;;;;;8.46;73.83;103063.06;5093343;28;19935;-33
2022/04/28 07:02:22;;;;;;;;;;;;;;;8.54;74.20;103067.59;5093096;28;19912;-33
2022/04/28 07:04:47;;;;;;;;;;;;;;;8.64;74.74;103079.97;5093060;28;20356;-33
2022/04/28 07:07:12;;;;;;;;;;;;;;;8.73;72.98;103080.81;5097399;28;20065;-33
2022/04/28 07:09:38;;;;;;;;;;;;;;;8.85;72.78;103071.44;5096976;28;20359;-33
2022/04/28 07:12:03;;;;;;;;;;;;;;;8.87;72.64;103082.88;5097623;28;19915;-33
2022/04/28 07:14:28;;;;;;;;;;;;;;;8.95;71.89;103082.06;5097472;28;20012;-33
2022/04/28 07:16:54;;;;;;;;;;;;;;;9.04;72.24;103083.78;5097034;28;20282;-33
2022/04/28 07:19:19;;;;;;;;;;;;;;;9.15;72.55;103085.31;5096426;28;20344;-33
2022/04/28 07:21:44;;;;;;;;;;;;;;;9.28;72.04;103091.06;5097184;28;20006;-33
2022/04/28 07:24:09;;;;;;;;;;;;;;;9.37;70.69;103094.59;5096683;28;20473;-33
2022/04/28 07:26:34;;;;;;;;;;;;;;;9.40;70.36;103089.69;5096862;28;19918;-33
2022/04/28 07:29:00;;;;;;;;;;;;;;;9.50;71.22;103095.78;5095107;28;19916;-33
2022/04/28 07:31:25;;;;;;;;;;;;;;;9.60;70.65;103086.66;5096936;28;20368;-33
2022/04/28 07:33:50;;;;;;;;;;;;;;;9.63;70.07;103100.69;5111640;28;19916;-33
2022/04/28 07:36:16;;;;;;;;;;;;;;;9.73;69.67;103101.34;5108334;28;19957;-34
2022/04/28 07:38:41;;;;;;;;;;;;;;;9.81;70.00;103097.81;5096840;28;20272;-34
2022/04/28 07:41:07;;;;;;;;;;;;;;;9.92;69.04;103094.75;5096870;28;19918;-34
2022/04/28 07:43:32;;;;;;;;;;;;;;;9.97;69.20;103099.63;5097009;28;19923;-33
2022/04/28 07:45:57;;;;;;;;;;;;;;;10.06;68.50;103095.91;5096767;28;19982;-33
2022/04/28 07:48:22;;;;;;;;;;;;;;;10.10;68.76;103099.91;5096234;28;19976;-33
2022/04/28 07:50:49;;;;;;;;;;;;;;;10.09;67.37;103109.03;5096873;28;20408;-33
2022/04/28 07:53:14;;;;;;;;;;;;;;;10.12;67.55;103102.47;5096762;28;19945;-33
2022/04/28 07:55:39;;;;;;;;;;;;;;;10.18;67.69;103110.72;5096551;28;20002;-33
2022/04/28 07:58:05;;;;;;;;;;;;;;;10.27;67.37;103108.88;5096038;28;19955;-33
2022/04/28 08:00:30;;;;;;;;;;;;;;;10.30;66.56;103116.66;5096850;28;19912;-33
2022/04/28 08:02:55;;;;;;;;;;;;;;;10.30;66.20;103116.66;5095602;28;19961;-33
2022/04/28 08:05:20;;;;;;;;;;;;;;;10.40;66.57;103114.59;5096404;28;19912;-33
2022/04/28 08:07:45;;;;;;;;;;;;;;;10.54;66.53;103121.97;5096304;28;19959;-33
2022/04/28 08:10:12;;;;;;;;;;;;;;;10.64;65.93;103120.88;5096268;28;20417;-33
2022/04/28 08:12:37;;;;;;;;;;;;;;;10.70;65.10;103125.63;5096879;28;19912;-34
2022/04/28 08:15:02;;;;;;;;;;;;;;;10.75;64.42;103113.25;5096373;28;19923;-34
2022/04/28 08:17:28;;;;;;;;;;;;;;;10.81;65.33;103133.34;5095192;28;20267;-33
2022/04/28 08:19:53;;;;;;;;;;;;;;;10.82;63.72;103124.19;5096041;28;19912;-34
2022/04/28 08:22:18;;;;;;;;;;;;;;;10.93;64.50;103133.78;5095927;28;19962;-34
2022/04/28 08:24:43;;;;;;;;;;;;;;;11.05;63.69;103130.50;5096145;28;20010;-32
2022/04/28 08:27:09;;;;;;;;;;;;;;;11.13;64.52;103129.63;5095559;28;19969;-32
2022/04/28 08:29:34;;;;;;;;;;;;;;;11.23;63.47;103134.81;5095798;28;19912;-32
2022/04/28 08:31:59;;;;;;;;;;;;;;;11.25;63.33;103135.44;5095863;28;20367;-33
2022/04/28 08:34:24;;;;;;;;;;;;;;;11.33;62.66;103127.28;5095744;28;20011;-34
2022/04/28 08:36:50;;;;;;;;;;;;;;;11.40;63.58;103139.06;5095788;28;19998;-34
2022/04/28 08:39:15;;;;;;;;;;;;;;;11.52;63.43;103142.22;5095384;28;20010;-34
2022/04/28 08:41:42;;;;;;;;;;;;;;;11.65;62.47;103134.28;5096514;28;19938;-34
2022/04/28 08:44:13;;;;;;;;;;;;;;;11.77;62.32;103132.00;5095785;28;19912;-34
2022/04/28 08:46:50;;;;;;;;;;;;;;;11.85;60.21;103130.06;5095763;28;20021;-34
2022/04/28 08:49:16;;;;;;;;;;;;;;;11.71;59.98;103130.00;5095593;28;20332;-34
2022/04/28 08:51:42;;;;;;;;;;;;;;;11.79;61.54;103133.47;5096776;28;19957;-34
2022/04/28 08:54:12;;;;;;;;;;;;;;;11.99;61.36;103133.84;5095309;28;20257;-34
2022/04/28 08:56:39;;;;;;;;;;;;;;;11.98;57.73;103131.31;5095884;28;20076;-34
2022/04/28 08:59:05;;;;;;;;;;;;;;;12.09;59.37;103133.56;5094466;28;19912;-34
2022/04/28 09:01:30;;;;;;;;;;;;;;;12.29;59.06;103133.84;5095178;28;19999;-34
2022/04/28 09:03:55;;;;;;;;;;;;;;;12.35;58.37;103127.72;5095847;28;19912;-34
2022/04/28 09:06:22;;;;;;;;;;;;;;;12.42;57.39;103122.38;5095827;28;20303;-34
2022/04/28 09:08:49;;;;;;;;;;;;;;;12.56;58.98;103127.78;5093373;28;20339;-34
2022/04/28 09:11:21;;;;;;;;;;;;;;;12.71;57.09;103124.22;5095413;28;19912;-34
2022/04/28 09:14:09;;;;;;;;;;;;;;;12.73;56.49;103125.69;5095230;28;20007;-34
2022/04/28 09:16:35;;;;;;;;;;;;;;;12.91;57.55;103116.31;5095426;28;20000;-34
2022/04/28 09:19:00;;;;;;;;;;;;;;;13.06;56.72;103117.94;5094985;28;20003;-34
2022/04/28 09:21:26;;;;;;;;;;;;;;;13.18;55.96;103117.44;5095340;28;19924;-34
2022/04/28 09:23:51;;;;;;;;;;;;;;;13.14;53.62;103117.81;5095061;28;20284;-34
2022/04/28 09:26:17;;;;;;;;;;;;;;;13.29;55.04;103119.66;5094307;28;20353;-34
2022/04/28 09:28:42;;;;;;;;;;;;;;;13.42;56.64;103121.66;5095174;28;19923;-34
2022/04/28 09:31:10;;;;;;;;;;;;;;;13.34;53.71;103106.34;5094321;28;19952;-34
2022/04/28 09:33:36;;;;;;;;;;;;;;;13.48;54.49;103107.31;5094853;28;20006;-34
2022/04/28 09:36:02;;;;;;;;;;;;;;;13.36;53.89;103112.41;5094579;28;20352;-34
2022/04/28 09:38:28;;;;;;;;;;;;;;;13.50;53.87;103106.06;5095143;28;20011;-34
2022/04/28 09:43:37;;;;;;;;;;;;;;;13.79;53.85;103104.22;5094740;28;19919;-34
2022/04/28 09:46:04;;;;;;;;;;;;;;;13.93;53.99;103107.88;5094619;28;19916;-34
2022/04/28 09:48:33;;;;;;;;;;;;;;;14.09;53.77;103102.97;5094098;28;19935;-34
2022/04/28 09:51:04;;;;;;;;;;;;;;;14.23;52.49;103111.22;5093929;28;20352;-34
2022/04/28 09:53:33;;;;;;;;;;;;;;;14.10;50.86;103109.22;5094174;28;19911;-34
2022/04/28 09:55:59;;;;;;;;;;;;;;;14.21;52.15;103105.16;5095003;28;20406;-34
2022/04/28 09:58:26;;;;;;;;;;;;;;;14.31;52.11;103098.28;5094005;28;19912;-34
2022/04/28 10:00:52;;;;;;;;;;;;;;;14.53;53.54;103095.47;5094857;28;19957;-32
2022/04/28 10:03:17;;;;;;;;;;;;;;;14.72;52.02;103096.59;5093189;28;19912;-33
2022/04/28 10:05:43;;;;;;;;;;;;;;;14.83;49.65;103102.28;5094429;28;19923;-33
2022/04/28 10:08:08;;;;;;;;;;;;;;;14.75;49.66;103088.03;5093851;28;19959;-33
2022/04/28 10:10:35;;;;;;;;;;;;;;;14.72;50.25;103091.16;5094644;28;19938;-33
2022/04/28 10:13:00;;;;;;;;;;;;;;;14.81;51.34;103082.59;5093920;28;20225;-33
2022/04/28 10:15:27;;;;;;;;;;;;;;;14.91;50.02;103080.31;5093843;28;19923;-34
2022/04/28 10:17:55;;;;;;;;;;;;;;;14.78;48.05;103074.00;5093807;28;19916;-33
2022/04/28 10:20:25;;;;;;;;;;;;;;;14.85;49.10;103080.31;5093585;28;19919;-33
2022/04/28 10:22:51;;;;;;;;;;;;;;;14.98;51.44;103076.78;5093738;28;20328;-33
2022/04/28 10:33:42;;;;;;;;;;;;;;;15.10;48.21;103069.69;5093975;28;19934;-33
2022/04/28 10:36:14;;;;;;;;;;;;;;;15.17;49.61;103076.81;5093822;28;19912;-33
2022/04/28 10:38:42;;;;;;;;;;;;;;;15.29;48.45;103084.38;5093408;28;19912;-34
2022/04/28 10:41:08;;;;;;;;;;;;;;;15.40;47.83;103073.69;5093835;28;20264;-33
2022/04/28 10:43:33;;;;;;;;;;;;;;;15.46;49.15;103069.28;5093966;28;20292;-33
2022/04/28 10:46:01;;;;;;;;;;;;;;;15.64;48.24;103074.16;5093708;28;19984;-33
2022/04/28 10:48:29;;;;;;;;;;;;;;;15.78;49.85;103069.53;5093327;28;19919;-33
2022/04/28 10:51:11;;;;;;;;;;;;;;;15.80;46.79;103059.22;5094174;28;20016;-33
2022/04/28 10:53:55;;;;;;;;;;;;;;;15.98;48.91;103056.69;5093335;28;20348;-33
2022/04/28 10:56:21;;;;;;;;;;;;;;;16.12;48.83;103052.88;5093692;28;19912;-33
2022/04/28 10:58:46;;;;;;;;;;;;;;;16.08;46.93;103058.97;5092881;28;19919;-33
2022/04/28 11:01:23;;;;;;;;;;;;;;;16.19;47.17;103052.84;5093539;28;19912;-33
2022/04/28 11:03:49;;;;;;;;;;;;;;;16.42;47.84;103055.91;5093361;28;19918;-33
2022/04/28 11:06:16;;;;;;;;;;;;;;;16.52;45.61;103058.16;5094121;28;20007;-34
2022/04/28 11:08:49;;;;;;;;;;;;;;;16.55;45.72;103052.28;5093907;28;19912;-33
2022/04/28 11:11:15;;;;;;;;;;;;;;;16.59;45.24;103049.94;5093309;28;19919;-33
2022/04/28 11:13:43;;;;;;;;;;;;;;;16.73;46.60;103046.13;5093640;28;19912;-33
2022/04/28 11:16:09;;;;;;;;;;;;;;;16.91;45.92;103048.94;5092921;28;19912;-34
2022/04/28 11:18:34;;;;;;;;;;;;;;;17.01;45.71;103037.53;5092839;28;19911;-34
2022/04/28 11:21:03;;;;;;;;;;;;;;;16.99;44.28;103047.88;5093359;28;20007;-33
2022/04/28 11:23:33;;;;;;;;;;;;;;;17.01;45.67;103044.91;5091635;28;19912;-34
2022/04/28 11:25:58;;;;;;;;;;;;;;;17.14;44.73;103040.19;5093077;28;19912;-33
2022/04/28 11:28:23;;;;;;;;;;;;;;;17.24;44.24;103043.25;5093014;28;19916;-34
2022/04/28 11:30:49;;;;;;;;;;;;;;;17.20;44.07;103041.19;5092951;28;19990;-34
2022/04/28 11:33:14;;;;;;;;;;;;;;;17.11;45.73;103039.78;5093145;28;19912;-34
2022/04/28 11:35:40;;;;;;;;;;;;;;;17.18;44.42;103035.94;5093002;28;19912;-34
2022/04/28 11:38:05;;;;;;;;;;;;;;;17.27;45.04;103032.91;5093225;28;19912;-34
2022/04/28 11:40:33;;;;;;;;;;;;;;;17.01;44.70;103037.53;5092862;28;20044;-34
2022/04/28 11:42:59;;;;;;;;;;;;;;;16.55;45.44;103043.25;5093512;28;19958;-34
2022/04/28 11:45:26;;;;;;;;;;;;;;;16.55;46.38;103024.13;5093025;28;19994;-34
2022/04/28 11:47:53;;;;;;;;;;;;;;;16.68;45.03;103034.97;5092612;28;19934;-33
2022/04/28 11:50:22;;;;;;;;;;;;;;;16.53;43.42;103037.16;5092840;28;19919;-34
2022/04/28 11:53:01;;;;;;;;;;;;;;;16.59;44.80;103028.09;5093366;28;20292;-34
2022/04/28 11:55:31;;;;;;;;;;;;;;;16.62;45.07;103033.97;5096405;28;19920;-34
2022/04/28 11:57:56;;;;;;;;;;;;;;;16.67;45.33;103031.41;5096864;28;20026;-34
2022/04/28 12:00:24;;;;;;;;;;;;;;;16.59;44.00;103036.28;5096284;28;20383;-34
2022/04/28 12:02:50;;;;;;;;;;;;;;;16.78;43.57;103032.63;5095961;28;19912;-34
2022/04/28 12:05:16;;;;;;;;;;;;;;;17.01;43.55;103032.06;5096721;28;19920;-34
2022/04/28 12:07:43;;;;;;;;;;;;;;;17.25;44.22;103034.00;5096470;28;19912;-34
2022/04/28 12:15:47;;;;;;;;;;;;;;;17.40;42.79;103027.34;5096030;28;19958;-34
2022/04/28 12:20:58;;;;;;;;;;;;;;;17.24;41.92;103015.91;5096438;28;19957;-34
2022/04/28 12:23:30;;;;;;;;;;;;;;;17.14;40.83;103023.78;5095908;28;19919;-34
2022/04/28 12:26:00;;;;;;;;;;;;;;;17.38;40.31;103016.66;5096013;28;20426;-34
2022/04/28 12:28:32;;;;;;;;;;;;;;;17.65;40.89;103021.84;5096006;28;20344;-34
2022/04/28 12:30:57;;;;;;;;;;;;;;;17.82;41.04;103020.25;5096170;28;19962;-34
2022/04/28 12:33:22;;;;;;;;;;;;;;;17.65;39.07;103017.22;5095627;28;19959;-34
2022/04/28 12:35:48;;;;;;;;;;;;;;;17.91;42.00;103018.88;5096236;28;20347;-34
2022/04/28 12:38:23;;;;;;;;;;;;;;;17.94;40.32;103020.31;5095543;28;19912;-34
2022/04/28 12:40:48;;;;;;;;;;;;;;;17.67;40.82;103017.84;5095805;28;20275;-34
2022/04/28 12:43:33;;;;;;;;;;;;;;;17.75;40.53;103016.72;5095111;28;20049;-34
2022/04/28 12:45:59;;;;;;;;;;;;;;;17.92;41.64;103011.50;5095165;28;19919;-34
2022/04/28 12:48:31;;;;;;;;;;;;;;;18.13;42.01;103013.78;5094826;28;19912;-34
2022/04/28 12:51:08;;;;;;;;;;;;;;;18.20;40.24;103003.59;5095263;28;20010;-34
2022/04/28 12:53:34;;;;;;;;;;;;;;;18.39;40.70;103000.81;5095019;28;19919;-34
2022/04/28 12:56:03;;;;;;;;;;;;;;;18.37;40.56;103003.78;5094957;28;19912;-34
2022/04/28 12:58:28;;;;;;;;;;;;;;;18.45;39.50;103013.59;5094806;28;19912;-34
2022/04/28 13:00:54;;;;;;;;;;;;;;;18.55;40.31;103010.31;5095088;28;19919;-34
2022/04/28 13:03:29;;;;;;;;;;;;;;;18.61;40.51;103010.22;5094671;28;19956;-34
2022/04/28 13:05:57;;;;;;;;;;;;;;;18.77;40.46;103006.81;5094750;28;19912;-34
2022/04/28 13:08:22;;;;;;;;;;;;;;;18.68;36.95;102999.13;5095290;28;20018;-34
2022/04/28 13:10:48;;;;;;;;;;;;;;;18.80;37.73;102997.31;5095172;28;19959;-34
2022/04/28 13:13:13;;;;;;;;;;;;;;;18.79;37.22;103003.88;5094837;28;19912;-34